createdAt,value
2019-02-08T00:00:03.254Z,-73
2019-02-08T00:01:03.344Z,-73
2019-02-08T00:02:03.230Z,-73
2019-02-08T00:03:03.346Z,-73
2019-02-08T00:04:03.228Z,-73
2019-02-08T00:05:03.378Z,-73
2019-02-08T00:06:03.229Z,-73
2019-02-08T00:07:03.628Z,-72
2019-02-08T00:08:03.245Z,-72
2019-02-08T00:09:03.351Z,-72
2019-02-08T00:10:03.259Z,-72
2019-02-08T00:11:03.431Z,-72
2019-02-08T00:12:03.233Z,-71
2019-02-08T00:13:03.361Z,-71
2019-02-08T00:14:03.235Z,-71
2019-02-08T00:15:03.787Z,-72
2019-02-08T00:16:03.234Z,-72
2019-02-08T00:17:03.355Z,-71
2019-02-08T00:18:03.238Z,-68
2019-02-08T00:19:03.375Z,-68
2019-02-08T00:20:03.265Z,-68
2019-02-08T00:21:03.373Z,-68
2019-02-08T00:22:03.240Z,-68
2019-02-08T00:23:03.388Z,-68
2019-02-08T00:24:03.249Z,-69
2019-02-08T00:25:03.405Z,-69
2019-02-08T00:26:03.247Z,-69
2019-02-08T00:27:03.370Z,-69
2019-02-08T00:28:03.248Z,-69
2019-02-08T00:29:03.393Z,-69
2019-02-08T00:30:03.276Z,-69
2019-02-08T00:31:03.412Z,-69
2019-02-08T00:32:03.342Z,-69
2019-02-08T00:33:03.377Z,-69
2019-02-08T00:34:03.250Z,-69
2019-02-08T00:35:03.396Z,-69
2019-02-08T00:36:03.253Z,-69
2019-02-08T00:37:03.713Z,-69
2019-02-08T00:38:03.256Z,-69
2019-02-08T00:39:03.383Z,-69
2019-02-08T00:40:03.281Z,-69
2019-02-08T00:41:03.385Z,-72
2019-02-08T00:42:03.259Z,-73
2019-02-08T00:43:03.378Z,-72
2019-02-08T00:44:03.260Z,-72
2019-02-08T00:45:03.764Z,-72
2019-02-08T00:46:03.260Z,-71
2019-02-08T00:47:03.379Z,-71
2019-02-08T00:48:03.264Z,-71
2019-02-08T00:49:03.390Z,-71
2019-02-08T00:50:03.264Z,-71
2019-02-08T00:51:03.406Z,-71
2019-02-08T00:52:03.265Z,-71
2019-02-08T00:53:03.405Z,-71
2019-02-08T00:54:03.268Z,-71
2019-02-08T00:55:03.383Z,-69
2019-02-08T00:56:03.294Z,-69
2019-02-08T00:57:03.389Z,-69
2019-02-08T00:58:03.274Z,-69
2019-02-08T00:59:03.390Z,-70
2019-02-08T01:00:03.273Z,-70
2019-02-08T01:01:03.426Z,-71
2019-02-08T01:02:03.273Z,-71
2019-02-08T01:03:03.400Z,-71
2019-02-08T01:04:03.274Z,-71
2019-02-08T01:05:03.402Z,-71
2019-02-08T01:06:03.300Z,-71
2019-02-08T01:07:04.635Z,-70
2019-02-08T01:08:03.280Z,-70
2019-02-08T01:09:03.400Z,-70
2019-02-08T01:10:03.282Z,-70
2019-02-08T01:11:03.429Z,-71
2019-02-08T01:12:03.283Z,-71
2019-02-08T01:13:03.402Z,-71
2019-02-08T01:14:03.287Z,-71
2019-02-08T01:15:03.408Z,-71
2019-02-08T01:16:03.311Z,-71
2019-02-08T01:17:03.406Z,-71
2019-02-08T01:18:03.290Z,-71
2019-02-08T01:19:03.411Z,-71
2019-02-08T01:20:03.290Z,-71
2019-02-08T01:21:03.443Z,-71
2019-02-08T01:22:03.322Z,-71
2019-02-08T01:23:03.480Z,-71
2019-02-08T01:24:03.296Z,-71
2019-02-08T01:25:03.416Z,-71
2019-02-08T01:26:03.319Z,-71
2019-02-08T01:27:03.413Z,-71
2019-02-08T01:28:03.296Z,-71
2019-02-08T01:29:03.409Z,-71
2019-02-08T01:30:03.301Z,-70
2019-02-08T01:31:03.443Z,-70
2019-02-08T01:32:03.300Z,-69
2019-02-08T01:33:03.423Z,-69
2019-02-08T01:34:03.301Z,-70
2019-02-08T01:35:03.418Z,-70
2019-02-08T01:36:03.327Z,-70
2019-02-08T01:37:03.417Z,-70
2019-02-08T01:38:03.307Z,-70
2019-02-08T01:39:03.422Z,-71
2019-02-08T01:40:03.308Z,-71
2019-02-08T01:41:03.447Z,-71
2019-02-08T01:42:03.308Z,-70
2019-02-08T01:43:03.424Z,-71
2019-02-08T01:44:03.310Z,-71
2019-02-08T01:45:03.425Z,-71
2019-02-08T01:46:03.337Z,-71
2019-02-08T01:47:03.429Z,-71
2019-02-08T01:48:03.318Z,-71
2019-02-08T01:49:03.428Z,-71
2019-02-08T01:50:03.342Z,-71
2019-02-08T01:51:03.454Z,-71
2019-02-08T01:52:03.318Z,-71
2019-02-08T01:53:03.435Z,-71
2019-02-08T01:54:03.320Z,-71
2019-02-08T01:55:03.459Z,-71
2019-02-08T01:56:03.346Z,-71
2019-02-08T01:57:03.432Z,-71
2019-02-08T01:58:03.322Z,-71
2019-02-08T01:59:03.439Z,-71
2019-02-08T02:00:03.321Z,-71
2019-02-08T02:01:03.463Z,-71
2019-02-08T02:02:03.325Z,-71
2019-02-08T02:03:03.440Z,-71
2019-02-08T02:04:03.325Z,-71
2019-02-08T02:05:03.444Z,-71
2019-02-08T02:06:03.354Z,-71
2019-02-08T02:07:03.446Z,-71
2019-02-08T02:08:03.329Z,-71
2019-02-08T02:09:03.450Z,-71
2019-02-08T02:10:03.330Z,-71
2019-02-08T02:11:03.492Z,-71
2019-02-08T02:12:03.333Z,-71
2019-02-08T02:13:03.463Z,-72
2019-02-08T02:14:03.335Z,-72
2019-02-08T02:15:03.458Z,-72
2019-02-08T02:16:04.151Z,-72
2019-02-08T02:17:03.480Z,-72
2019-02-08T02:18:03.342Z,-72
2019-02-08T02:19:03.460Z,-72
2019-02-08T02:20:03.360Z,-72
2019-02-08T02:21:03.457Z,-72
2019-02-08T02:22:03.365Z,-72
2019-02-08T02:23:03.462Z,-72
2019-02-08T02:24:03.344Z,-72
2019-02-08T02:25:03.459Z,-72
2019-02-08T02:26:03.347Z,-71
2019-02-08T02:27:03.484Z,-72
2019-02-08T02:28:03.349Z,-72
2019-02-08T02:29:03.463Z,-72
2019-02-08T02:30:03.368Z,-72
2019-02-08T02:31:03.471Z,-72
2019-02-08T02:32:03.374Z,-72
2019-02-08T02:33:03.468Z,-72
2019-02-08T02:34:03.353Z,-72
2019-02-08T02:35:03.468Z,-72
2019-02-08T02:36:03.354Z,-72
2019-02-08T02:37:03.490Z,-72
2019-02-08T02:38:03.353Z,-72
2019-02-08T02:39:03.468Z,-72
2019-02-08T02:40:03.361Z,-72
2019-02-08T02:41:03.477Z,-72
2019-02-08T02:42:03.380Z,-72
2019-02-08T02:43:03.485Z,-72
2019-02-08T02:44:03.360Z,-71
2019-02-08T02:45:03.486Z,-69
2019-02-08T02:46:03.361Z,-69
2019-02-08T02:47:03.499Z,-69
2019-02-08T02:48:03.394Z,-69
2019-02-08T02:49:03.489Z,-69
2019-02-08T02:50:03.366Z,-69
2019-02-08T02:51:03.483Z,-69
2019-02-08T02:52:03.393Z,-69
2019-02-08T02:53:03.491Z,-69
2019-02-08T02:54:04.813Z,-69
2019-02-08T02:55:03.488Z,-69
2019-02-08T02:56:03.368Z,-69
2019-02-08T02:57:03.518Z,-69
2019-02-08T02:58:03.368Z,-70
2019-02-08T02:59:03.482Z,-70
2019-02-08T03:00:03.401Z,-70
2019-02-08T03:01:03.509Z,-70
2019-02-08T03:02:03.398Z,-69
2019-02-08T03:03:03.495Z,-69
2019-02-08T03:04:03.376Z,-72
2019-02-08T03:05:03.493Z,-72
2019-02-08T03:06:03.376Z,-72
2019-02-08T03:07:03.522Z,-72
2019-02-08T03:08:03.382Z,-72
2019-02-08T03:09:03.494Z,-72
2019-02-08T03:10:03.382Z,-72
2019-02-08T03:11:03.498Z,-73
2019-02-08T03:12:03.406Z,-71
2019-02-08T03:13:03.499Z,-72
2019-02-08T03:14:03.386Z,-72
2019-02-08T03:15:03.515Z,-72
2019-02-08T03:16:03.385Z,-72
2019-02-08T03:17:03.525Z,-72
2019-02-08T03:18:03.386Z,-72
2019-02-08T03:19:03.505Z,-72
2019-02-08T03:20:03.389Z,-72
2019-02-08T03:21:03.504Z,-72
2019-02-08T03:22:03.423Z,-72
2019-02-08T03:23:03.504Z,-72
2019-02-08T03:24:03.395Z,-72
2019-02-08T03:25:03.528Z,-72
2019-02-08T03:26:03.393Z,-72
2019-02-08T03:27:03.532Z,-72
2019-02-08T03:28:03.395Z,-72
2019-02-08T03:29:03.518Z,-72
2019-02-08T03:30:03.399Z,-72
2019-02-08T03:31:03.513Z,-72
2019-02-08T03:32:03.425Z,-72
2019-02-08T03:33:03.629Z,-72
2019-02-08T03:34:03.400Z,-72
2019-02-08T03:35:03.517Z,-72
2019-02-08T03:36:03.403Z,-72
2019-02-08T03:37:03.548Z,-72
2019-02-08T03:38:03.405Z,-72
2019-02-08T03:39:03.517Z,-72
2019-02-08T03:40:03.420Z,-72
2019-02-08T03:41:03.518Z,-72
2019-02-08T03:42:03.431Z,-72
2019-02-08T03:43:03.524Z,-73
2019-02-08T03:44:03.409Z,-72
2019-02-08T03:45:03.522Z,-72
2019-02-08T03:46:03.408Z,-72
2019-02-08T03:47:03.555Z,-72
2019-02-08T03:48:03.411Z,-72
2019-02-08T03:49:03.536Z,-72
2019-02-08T03:50:03.414Z,-72
2019-02-08T03:51:03.531Z,-72
2019-02-08T03:52:03.438Z,-72
2019-02-08T03:53:03.526Z,-72
2019-02-08T03:54:03.417Z,-72
2019-02-08T03:55:03.534Z,-72
2019-02-08T03:56:03.420Z,-72
2019-02-08T03:57:03.558Z,-72
2019-02-08T03:58:03.420Z,-72
2019-02-08T03:59:03.539Z,-72
2019-02-08T04:00:03.421Z,-72
2019-02-08T04:01:03.548Z,-72
2019-02-08T04:02:03.423Z,-71
2019-02-08T04:03:03.566Z,-71
2019-02-08T04:04:03.426Z,-71
2019-02-08T04:05:03.541Z,-71
2019-02-08T04:06:03.432Z,-71
2019-02-08T04:07:03.561Z,-71
2019-02-08T04:08:03.452Z,-70
2019-02-08T04:09:03.545Z,-70
2019-02-08T04:10:03.431Z,-70
2019-02-08T04:11:03.552Z,-71
2019-02-08T04:12:03.430Z,-70
2019-02-08T04:13:03.572Z,-71
2019-02-08T04:14:03.430Z,-71
2019-02-08T04:15:03.549Z,-71
2019-02-08T04:16:03.434Z,-71
2019-02-08T04:17:03.551Z,-71
2019-02-08T04:18:03.460Z,-71
2019-02-08T04:19:03.553Z,-70
2019-02-08T04:20:03.440Z,-70
2019-02-08T04:21:03.558Z,-71
2019-02-08T04:22:03.439Z,-71
2019-02-08T04:23:03.577Z,-71
2019-02-08T04:24:03.441Z,-71
2019-02-08T04:25:03.567Z,-71
2019-02-08T04:26:03.452Z,-71
2019-02-08T04:27:03.559Z,-71
2019-02-08T04:28:03.469Z,-71
2019-02-08T04:29:03.561Z,-71
2019-02-08T04:30:03.450Z,-70
2019-02-08T04:31:03.567Z,-70
2019-02-08T04:32:03.448Z,-70
2019-02-08T04:33:03.588Z,-70
2019-02-08T04:34:03.449Z,-71
2019-02-08T04:35:03.570Z,-70
2019-02-08T04:36:03.452Z,-70
2019-02-08T04:37:03.565Z,-70
2019-02-08T04:38:03.478Z,-70
2019-02-08T04:39:03.571Z,-70
2019-02-08T04:40:03.455Z,-70
2019-02-08T04:41:03.606Z,-71
2019-02-08T04:42:03.464Z,-70
2019-02-08T04:43:03.596Z,-71
2019-02-08T04:44:03.464Z,-71
2019-02-08T04:45:03.577Z,-71
2019-02-08T04:46:03.461Z,-71
2019-02-08T04:47:03.575Z,-71
2019-02-08T04:48:03.488Z,-71
2019-02-08T04:49:03.581Z,-71
2019-02-08T04:50:03.463Z,-71
2019-02-08T04:51:03.590Z,-72
2019-02-08T04:52:03.466Z,-72
2019-02-08T04:53:03.607Z,-72
2019-02-08T04:54:03.473Z,-72
2019-02-08T04:55:03.594Z,-72
2019-02-08T04:56:03.467Z,-72
2019-02-08T04:57:03.589Z,-72
2019-02-08T04:58:03.495Z,-72
2019-02-08T04:59:03.581Z,-72
2019-02-08T05:00:03.469Z,-71
2019-02-08T05:01:03.594Z,-71
2019-02-08T05:02:03.472Z,-71
2019-02-08T05:03:03.614Z,-71
2019-02-08T05:04:03.474Z,-71
2019-02-08T05:05:03.593Z,-71
2019-02-08T05:06:03.475Z,-71
2019-02-08T05:07:03.592Z,-71
2019-02-08T05:08:03.499Z,-70
2019-02-08T05:09:03.589Z,-72
2019-02-08T05:10:03.480Z,-71
2019-02-08T05:11:03.595Z,-71
2019-02-08T05:12:03.480Z,-70
2019-02-08T05:13:03.621Z,-70
2019-02-08T05:14:03.482Z,-70
2019-02-08T05:15:03.600Z,-71
2019-02-08T05:16:03.486Z,-71
2019-02-08T05:17:03.605Z,-71
2019-02-08T05:18:03.507Z,-72
2019-02-08T05:19:03.601Z,-72
2019-02-08T05:20:03.490Z,-72
2019-02-08T05:21:03.601Z,-72
2019-02-08T05:22:03.488Z,-72
2019-02-08T05:23:03.633Z,-71
2019-02-08T05:24:03.492Z,-71
2019-02-08T05:25:03.617Z,-71
2019-02-08T05:26:03.494Z,-71
2019-02-08T05:27:03.655Z,-70
2019-02-08T05:28:03.519Z,-71
2019-02-08T05:29:03.607Z,-72
2019-02-08T05:30:03.494Z,-72
2019-02-08T05:31:03.618Z,-72
2019-02-08T05:32:03.493Z,-72
2019-02-08T05:33:03.648Z,-73
2019-02-08T05:34:03.497Z,-72
2019-02-08T05:35:03.618Z,-72
2019-02-08T05:36:03.497Z,-71
2019-02-08T05:37:03.615Z,-72
2019-02-08T05:38:03.525Z,-72
2019-02-08T05:39:03.634Z,-72
2019-02-08T05:40:03.507Z,-72
2019-02-08T05:41:03.622Z,-72
2019-02-08T05:42:03.506Z,-74
2019-02-08T05:43:03.618Z,-71
2019-02-08T05:44:03.533Z,-68
2019-02-08T05:45:03.624Z,-68
2019-02-08T05:46:03.513Z,-68
2019-02-08T05:47:03.623Z,-68
2019-02-08T05:48:03.509Z,-68
2019-02-08T05:49:03.649Z,-68
2019-02-08T05:50:03.510Z,-68
2019-02-08T05:51:03.647Z,-68
2019-02-08T05:52:03.512Z,-68
2019-02-08T05:53:03.638Z,-68
2019-02-08T05:54:03.537Z,-68
2019-02-08T05:55:03.630Z,-68
2019-02-08T05:56:03.517Z,-68
2019-02-08T05:57:03.648Z,-68
2019-02-08T05:58:03.526Z,-68
2019-02-08T05:59:03.655Z,-68
2019-02-08T06:00:03.542Z,-68
2019-02-08T06:01:03.644Z,-68
2019-02-08T06:02:03.520Z,-68
2019-02-08T06:03:03.638Z,-68
2019-02-08T06:04:03.546Z,-68
2019-02-08T06:05:03.640Z,-68
2019-02-08T06:06:03.525Z,-68
2019-02-08T06:07:03.644Z,-68
2019-02-08T06:08:03.535Z,-68
2019-02-08T06:09:03.668Z,-68
2019-02-08T06:10:03.528Z,-68
2019-02-08T06:11:03.649Z,-68
2019-02-08T06:12:03.528Z,-68
2019-02-08T06:13:03.644Z,-68
2019-02-08T06:14:03.559Z,-68
2019-02-08T06:15:03.650Z,-68
2019-02-08T06:16:03.532Z,-68
2019-02-08T06:17:03.656Z,-68
2019-02-08T06:18:03.532Z,-68
2019-02-08T06:19:03.746Z,-68
2019-02-08T06:20:03.537Z,-68
2019-02-08T06:21:03.650Z,-68
2019-02-08T06:22:03.543Z,-68
2019-02-08T06:23:03.652Z,-68
2019-02-08T06:24:03.565Z,-68
2019-02-08T06:25:05.014Z,-68
2019-02-08T06:26:03.540Z,-68
2019-02-08T06:27:03.660Z,-68
2019-02-08T06:28:03.542Z,-68
2019-02-08T06:29:03.683Z,-68
2019-02-08T06:30:03.543Z,-68
2019-02-08T06:31:03.659Z,-68
2019-02-08T06:32:03.549Z,-68
2019-02-08T06:33:03.661Z,-68
2019-02-08T06:34:03.572Z,-68
2019-02-08T06:35:03.663Z,-68
2019-02-08T06:36:03.549Z,-68
2019-02-08T06:37:03.676Z,-68
2019-02-08T06:38:03.554Z,-68
2019-02-08T06:39:03.690Z,-68
2019-02-08T06:40:03.552Z,-68
2019-02-08T06:41:03.670Z,-68
2019-02-08T06:42:03.555Z,-68
2019-02-08T06:43:03.668Z,-68
2019-02-08T06:44:03.580Z,-68
2019-02-08T06:45:03.671Z,-68
2019-02-08T06:46:03.559Z,-68
2019-02-08T06:47:03.678Z,-69
2019-02-08T06:48:03.562Z,-68
2019-02-08T06:49:03.695Z,-68
2019-02-08T06:50:03.563Z,-68
2019-02-08T06:51:04.404Z,-68
2019-02-08T06:52:03.560Z,-68
2019-02-08T06:53:03.721Z,-68
2019-02-08T06:54:03.590Z,-68
2019-02-08T06:55:11.262Z,-68
2019-02-08T06:56:03.564Z,-68
2019-02-08T06:57:03.680Z,-68
2019-02-08T06:58:03.567Z,-68
2019-02-08T06:59:03.706Z,-68
2019-02-08T07:00:03.568Z,-67
2019-02-08T07:01:03.689Z,-68
2019-02-08T07:02:03.754Z,-68
2019-02-08T07:03:03.690Z,-68
2019-02-08T07:04:03.593Z,-68
2019-02-08T07:05:03.689Z,-68
2019-02-08T07:06:03.574Z,-68
2019-02-08T07:07:03.705Z,-68
2019-02-08T07:08:03.573Z,-68
2019-02-08T07:09:03.714Z,-68
2019-02-08T07:10:03.576Z,-68
2019-02-08T07:11:03.729Z,-68
2019-02-08T07:12:03.576Z,-68
2019-02-08T07:13:03.712Z,-68
2019-02-08T07:14:03.605Z,-68
2019-02-08T07:15:03.691Z,-68
2019-02-08T07:16:03.582Z,-68
2019-02-08T07:17:03.698Z,-68
2019-02-08T07:18:03.584Z,-68
2019-02-08T07:19:03.742Z,-68
2019-02-08T07:20:03.585Z,-68
2019-02-08T07:21:03.709Z,-68
2019-02-08T07:22:03.586Z,-68
2019-02-08T07:23:03.697Z,-68
2019-02-08T07:24:03.589Z,-68
2019-02-08T07:25:03.729Z,-69
2019-02-08T07:26:03.591Z,-68
2019-02-08T07:27:03.705Z,-68
2019-02-08T07:28:03.597Z,-68
2019-02-08T07:29:03.707Z,-68
2019-02-08T07:30:03.617Z,-68
2019-02-08T07:31:03.715Z,-68
2019-02-08T07:32:03.592Z,-68
2019-02-08T07:33:03.708Z,-68
2019-02-08T07:34:03.598Z,-68
2019-02-08T07:35:03.742Z,-68
2019-02-08T07:36:03.599Z,-68
2019-02-08T07:37:03.713Z,-68
2019-02-08T07:38:03.598Z,-68
2019-02-08T07:39:03.715Z,-68
2019-02-08T07:40:03.629Z,-68
2019-02-08T07:41:03.713Z,-68
2019-02-08T07:42:03.600Z,-68
2019-02-08T07:43:03.714Z,-68
2019-02-08T07:44:03.605Z,-68
2019-02-08T07:45:03.746Z,-68
2019-02-08T07:46:03.606Z,-68
2019-02-08T07:47:03.722Z,-68
2019-02-08T07:48:03.607Z,-68
2019-02-08T07:49:03.722Z,-68
2019-02-08T07:50:03.634Z,-68
2019-02-08T07:51:03.723Z,-68
2019-02-08T07:52:03.611Z,-68
2019-02-08T07:53:03.729Z,-68
2019-02-08T07:54:03.614Z,-68
2019-02-08T07:55:03.754Z,-68
2019-02-08T07:56:03.613Z,-68
2019-02-08T07:57:03.727Z,-68
2019-02-08T07:58:03.615Z,-68
2019-02-08T07:59:03.759Z,-68
2019-02-08T08:00:03.641Z,-68
2019-02-08T08:01:03.731Z,-68
2019-02-08T08:02:03.699Z,-68
2019-02-08T08:03:04.222Z,-68
2019-02-08T08:04:03.821Z,-68
2019-02-08T08:05:03.759Z,-68
2019-02-08T08:06:03.623Z,-68
2019-02-08T08:07:03.742Z,-68
2019-02-08T08:08:03.627Z,-68
2019-02-08T08:09:03.743Z,-68
2019-02-08T08:10:03.649Z,-68
2019-02-08T08:11:03.743Z,-68
2019-02-08T08:12:03.632Z,-68
2019-02-08T08:13:03.743Z,-68
2019-02-08T08:14:03.627Z,-68
2019-02-08T08:15:03.750Z,-68
2019-02-08T08:16:03.656Z,-68
2019-02-08T08:17:03.746Z,-68
2019-02-08T08:18:03.632Z,-68
2019-02-08T08:19:03.747Z,-68
2019-02-08T08:20:03.632Z,-68
2019-02-08T08:21:03.806Z,-68
2019-02-08T08:22:03.636Z,-68
2019-02-08T08:23:03.760Z,-68
2019-02-08T08:24:03.640Z,-68
2019-02-08T08:25:03.757Z,-68
2019-02-08T08:26:03.660Z,-68
2019-02-08T08:27:03.757Z,-68
2019-02-08T08:28:03.640Z,-68
2019-02-08T08:29:03.753Z,-68
2019-02-08T08:30:03.640Z,-68
2019-02-08T08:31:03.780Z,-68
2019-02-08T08:32:03.644Z,-68
2019-02-08T08:33:03.757Z,-68
2019-02-08T08:34:03.645Z,-68
2019-02-08T08:35:03.766Z,-68
2019-02-08T08:36:03.671Z,-68
2019-02-08T08:37:03.767Z,-68
2019-02-08T08:38:03.647Z,-68
2019-02-08T08:39:03.764Z,-68
2019-02-08T08:40:03.654Z,-68
2019-02-08T08:41:03.790Z,-68
2019-02-08T08:42:03.650Z,-68
2019-02-08T08:43:03.766Z,-68
2019-02-08T08:44:03.655Z,-68
2019-02-08T08:45:03.776Z,-68
2019-02-08T08:46:03.679Z,-68
2019-02-08T08:47:03.770Z,-68
2019-02-08T08:48:03.655Z,-68
2019-02-08T08:49:03.777Z,-68
2019-02-08T08:50:03.656Z,-68
2019-02-08T08:51:03.798Z,-68
2019-02-08T08:52:03.660Z,-68
2019-02-08T08:53:03.777Z,-68
2019-02-08T08:54:03.660Z,-68
2019-02-08T08:55:03.777Z,-68
2019-02-08T08:56:03.687Z,-68
2019-02-08T08:57:03.778Z,-68
2019-02-08T08:58:03.665Z,-68
2019-02-08T08:59:03.776Z,-68
2019-02-08T09:00:03.664Z,-68
2019-02-08T09:01:03.815Z,-68
2019-02-08T09:02:03.667Z,-68
2019-02-08T09:03:03.796Z,-68
2019-02-08T09:04:03.670Z,-68
2019-02-08T09:05:03.783Z,-68
2019-02-08T09:06:08.283Z,-68
2019-02-08T09:07:03.797Z,-68
2019-02-08T09:08:03.674Z,-68
2019-02-08T09:09:03.787Z,-68
2019-02-08T09:10:03.679Z,-68
2019-02-08T09:11:03.840Z,-68
2019-02-08T09:12:03.677Z,-68
2019-02-08T09:13:03.795Z,-68
2019-02-08T09:14:03.676Z,-68
2019-02-08T09:15:03.796Z,-68
2019-02-08T09:16:03.681Z,-68
2019-02-08T09:17:03.817Z,-68
2019-02-08T09:18:03.679Z,-69
2019-02-08T09:19:03.795Z,-68
2019-02-08T09:20:03.682Z,-68
2019-02-08T09:21:03.797Z,-68
2019-02-08T09:22:03.708Z,-68
2019-02-08T09:23:03.799Z,-68
2019-02-08T09:24:03.687Z,-68
2019-02-08T09:25:03.802Z,-68
2019-02-08T09:26:03.692Z,-69
2019-02-08T09:27:03.827Z,-68
2019-02-08T09:28:03.691Z,-68
2019-02-08T09:29:03.806Z,-68
2019-02-08T09:30:03.694Z,-68
2019-02-08T09:31:03.802Z,-68
2019-02-08T09:32:03.716Z,-68
2019-02-08T09:33:03.807Z,-68
2019-02-08T09:34:03.694Z,-68
2019-02-08T09:35:03.813Z,-68
2019-02-08T09:36:03.694Z,-68
2019-02-08T09:37:03.835Z,-68
2019-02-08T09:38:03.695Z,-68
2019-02-08T09:39:03.809Z,-68
2019-02-08T09:40:03.698Z,-68
2019-02-08T09:41:03.818Z,-68
2019-02-08T09:42:03.723Z,-68
2019-02-08T09:43:03.818Z,-68
2019-02-08T09:44:03.705Z,-68
2019-02-08T09:45:03.817Z,-68
2019-02-08T09:46:03.705Z,-68
2019-02-08T09:47:03.839Z,-68
2019-02-08T09:48:03.704Z,-68
2019-02-08T09:49:03.827Z,-68
2019-02-08T09:50:03.706Z,-68
2019-02-08T09:51:03.835Z,-68
2019-02-08T09:52:03.733Z,-68
2019-02-08T09:53:03.827Z,-68
2019-02-08T09:54:03.708Z,-68
2019-02-08T09:55:03.823Z,-68
2019-02-08T09:56:03.711Z,-68
2019-02-08T09:57:03.881Z,-68
2019-02-08T09:58:03.714Z,-68
2019-02-08T09:59:03.833Z,-68
2019-02-08T10:00:03.715Z,-68
2019-02-08T10:01:03.830Z,-68
2019-02-08T10:02:03.719Z,-68
2019-02-08T10:03:03.851Z,-68
2019-02-08T10:04:03.718Z,-68
2019-02-08T10:05:03.838Z,-69
2019-02-08T10:06:03.720Z,-68
2019-02-08T10:07:03.837Z,-68
2019-02-08T10:08:03.749Z,-68
2019-02-08T10:09:03.837Z,-68
2019-02-08T10:10:03.723Z,-68
2019-02-08T10:11:03.841Z,-68
2019-02-08T10:12:03.726Z,-68
2019-02-08T10:13:03.862Z,-68
2019-02-08T10:14:03.727Z,-68
2019-02-08T10:15:03.841Z,-68
2019-02-08T10:16:03.727Z,-68
2019-02-08T10:17:03.847Z,-68
2019-02-08T10:18:03.755Z,-68
2019-02-08T10:19:03.848Z,-68
2019-02-08T10:20:03.733Z,-68
2019-02-08T10:21:03.848Z,-69
2019-02-08T10:22:03.733Z,-68
2019-02-08T10:23:03.873Z,-68
2019-02-08T10:24:03.734Z,-68
2019-02-08T10:25:03.849Z,-68
2019-02-08T10:26:05.334Z,-68
2019-02-08T10:27:04.317Z,-68
2019-02-08T10:28:03.763Z,-68
2019-02-08T10:29:04.354Z,-68
2019-02-08T10:30:03.742Z,-68
2019-02-08T10:31:03.860Z,-68
2019-02-08T10:32:03.741Z,-68
2019-02-08T10:33:03.886Z,-68
2019-02-08T10:34:03.742Z,-68
2019-02-08T10:35:03.857Z,-68
2019-02-08T10:36:03.743Z,-68
2019-02-08T10:37:03.866Z,-68
2019-02-08T10:38:03.771Z,-68
2019-02-08T10:39:03.860Z,-68
2019-02-08T10:40:03.748Z,-68
2019-02-08T10:41:03.865Z,-68
2019-02-08T10:42:03.749Z,-68
2019-02-08T10:43:03.887Z,-68
2019-02-08T10:44:03.749Z,-68
2019-02-08T10:45:03.872Z,-68
2019-02-08T10:46:03.756Z,-68
2019-02-08T10:47:03.868Z,-68
2019-02-08T10:48:03.777Z,-68
2019-02-08T10:49:03.865Z,-68
2019-02-08T10:50:03.756Z,-68
2019-02-08T10:51:03.871Z,-68
2019-02-08T10:52:03.761Z,-68
2019-02-08T10:53:03.902Z,-68
2019-02-08T10:54:03.757Z,-68
2019-02-08T10:55:03.875Z,-68
2019-02-08T10:56:03.761Z,-69
2019-02-08T10:57:03.875Z,-68
2019-02-08T10:58:03.785Z,-68
2019-02-08T10:59:03.879Z,-68
2019-02-08T11:00:03.763Z,-68
2019-02-08T11:01:03.881Z,-68
2019-02-08T11:02:03.765Z,-68
2019-02-08T11:03:03.883Z,-69
2019-02-08T11:04:03.790Z,-68
2019-02-08T11:05:03.892Z,-68
2019-02-08T11:06:03.768Z,-68
2019-02-08T11:07:03.888Z,-68
2019-02-08T11:08:03.773Z,-68
2019-02-08T11:09:03.910Z,-68
2019-02-08T11:10:03.773Z,-68
2019-02-08T11:11:03.886Z,-69
2019-02-08T11:12:03.774Z,-68
2019-02-08T11:13:04.976Z,-68
2019-02-08T11:14:03.798Z,-68
2019-02-08T11:15:03.894Z,-68
2019-02-08T11:16:03.778Z,-68
2019-02-08T11:17:03.890Z,-68
2019-02-08T11:18:03.778Z,-68
2019-02-08T11:19:03.926Z,-69
2019-02-08T11:20:03.780Z,-68
2019-02-08T11:21:03.899Z,-68
2019-02-08T11:22:03.784Z,-68
2019-02-08T11:23:03.946Z,-68
2019-02-08T11:24:03.809Z,-68
2019-02-08T11:25:03.898Z,-68
2019-02-08T11:26:03.785Z,-68
2019-02-08T11:27:03.906Z,-68
2019-02-08T11:28:03.787Z,-69
2019-02-08T11:29:03.927Z,-69
2019-02-08T11:30:03.789Z,-68
2019-02-08T11:31:03.906Z,-68
2019-02-08T11:32:03.791Z,-68
2019-02-08T11:33:03.908Z,-68
2019-02-08T11:34:03.814Z,-68
2019-02-08T11:35:03.906Z,-68
2019-02-08T11:36:03.792Z,-69
2019-02-08T11:37:03.908Z,-69
2019-02-08T11:38:03.813Z,-68
2019-02-08T11:39:03.933Z,-68
2019-02-08T11:40:03.798Z,-69
2019-02-08T11:41:03.913Z,-69
2019-02-08T11:42:03.798Z,-68
2019-02-08T11:43:03.949Z,-68
2019-02-08T11:44:03.827Z,-68
2019-02-08T11:45:03.922Z,-68
2019-02-08T11:46:03.802Z,-68
2019-02-08T11:47:03.916Z,-68
2019-02-08T11:48:03.808Z,-68
2019-02-08T11:49:03.942Z,-68
2019-02-08T11:50:03.819Z,-69
2019-02-08T11:51:04.125Z,-69
2019-02-08T11:52:03.807Z,-69
2019-02-08T11:53:03.923Z,-69
2019-02-08T11:54:03.878Z,-69
2019-02-08T11:55:03.922Z,-69
2019-02-08T11:56:03.811Z,-69
2019-02-08T11:57:03.928Z,-69
2019-02-08T11:58:03.812Z,-69
2019-02-08T11:59:03.928Z,-69
2019-02-08T12:00:03.839Z,-68
2019-02-08T12:01:03.932Z,-69
2019-02-08T12:02:04.046Z,-69
2019-02-08T12:03:04.918Z,-69
2019-02-08T12:04:03.821Z,-69
2019-02-08T12:05:03.964Z,-69
2019-02-08T12:06:03.817Z,-69
2019-02-08T12:07:03.932Z,-69
2019-02-08T12:08:03.821Z,-69
2019-02-08T12:09:03.934Z,-69
2019-02-08T12:10:03.847Z,-68
2019-02-08T12:11:03.952Z,-69
2019-02-08T12:12:03.840Z,-68
2019-02-08T12:13:03.941Z,-69
2019-02-08T12:14:03.826Z,-69
2019-02-08T12:15:03.968Z,-69
2019-02-08T12:16:03.828Z,-69
2019-02-08T12:17:03.943Z,-69
2019-02-08T12:18:03.829Z,-68
2019-02-08T12:19:03.945Z,-68
2019-02-08T12:20:03.855Z,-69
2019-02-08T12:21:03.951Z,-68
2019-02-08T12:22:03.833Z,-68
2019-02-08T12:23:03.960Z,-69
2019-02-08T12:24:03.833Z,-69
2019-02-08T12:25:03.981Z,-69
2019-02-08T12:26:03.837Z,-69
2019-02-08T12:27:03.951Z,-69
2019-02-08T12:28:03.838Z,-69
2019-02-08T12:29:03.956Z,-69
2019-02-08T12:30:03.863Z,-69
2019-02-08T12:31:03.957Z,-69
2019-02-08T12:32:03.844Z,-69
2019-02-08T12:33:03.957Z,-69
2019-02-08T12:34:03.841Z,-69
2019-02-08T12:35:03.992Z,-69
2019-02-08T12:36:03.850Z,-69
2019-02-08T12:37:03.958Z,-69
2019-02-08T12:38:03.847Z,-69
2019-02-08T12:39:05.241Z,-69
2019-02-08T12:40:03.874Z,-69
2019-02-08T12:41:10.153Z,-69
2019-02-08T12:42:03.852Z,-69
2019-02-08T12:43:03.971Z,-69
2019-02-08T12:44:03.851Z,-69
2019-02-08T12:45:03.994Z,-69
2019-02-08T12:46:03.852Z,-69
2019-02-08T12:47:03.966Z,-69
2019-02-08T12:48:03.854Z,-69
2019-02-08T12:49:03.974Z,-69
2019-02-08T12:50:03.854Z,-69
2019-02-08T12:51:03.997Z,-69
2019-02-08T12:52:03.858Z,-69
2019-02-08T12:53:03.981Z,-69
2019-02-08T12:54:03.859Z,-69
2019-02-08T12:55:03.979Z,-69
2019-02-08T12:56:03.886Z,-69
2019-02-08T12:57:03.976Z,-69
2019-02-08T12:58:03.862Z,-69
2019-02-08T12:59:03.981Z,-69
2019-02-08T13:00:03.867Z,-69
2019-02-08T13:01:04.004Z,-69
2019-02-08T13:02:03.867Z,-69
2019-02-08T13:03:03.982Z,-68
2019-02-08T13:04:03.867Z,-69
2019-02-08T13:05:03.985Z,-69
2019-02-08T13:06:03.893Z,-69
2019-02-08T13:07:03.988Z,-69
2019-02-08T13:08:03.871Z,-68
2019-02-08T13:09:03.988Z,-69
2019-02-08T13:10:03.874Z,-69
2019-02-08T13:11:04.010Z,-68
2019-02-08T13:12:03.875Z,-68
2019-02-08T13:13:04.421Z,-68
2019-02-08T13:14:03.886Z,-68
2019-02-08T13:15:04.036Z,-69
2019-02-08T13:16:03.902Z,-68
2019-02-08T13:17:04.421Z,-68
2019-02-08T13:18:03.882Z,-68
2019-02-08T13:19:04.686Z,-68
2019-02-08T13:20:04.054Z,-68
2019-02-08T13:21:04.043Z,-68
2019-02-08T13:22:03.882Z,-68
2019-02-08T13:24:03.885Z,-70
2019-02-08T13:25:04.001Z,-69
2019-02-08T13:26:03.911Z,-69
2019-02-08T13:27:04.004Z,-69
2019-02-08T13:28:03.889Z,-69
2019-02-08T13:29:04.005Z,-69
2019-02-08T13:30:03.889Z,-69
2019-02-08T13:31:04.036Z,-69
2019-02-08T13:32:03.892Z,-69
2019-02-08T13:33:04.006Z,-69
2019-02-08T13:34:03.893Z,-70
2019-02-08T13:35:04.010Z,-69
2019-02-08T13:36:04.087Z,-69
2019-02-08T13:37:04.111Z,-69
2019-02-08T13:38:03.910Z,-69
2019-02-08T13:39:04.080Z,-69
2019-02-08T13:40:03.917Z,-69
2019-02-08T13:41:04.037Z,-69
2019-02-08T13:42:03.906Z,-69
2019-02-08T13:43:04.016Z,-69
2019-02-08T13:44:03.903Z,-69
2019-02-08T13:45:04.021Z,-70
2019-02-08T13:46:03.929Z,-69
2019-02-08T13:47:04.019Z,-69